createdAt,value
2023-03-29T00:01:00.702Z,-0.50
2023-03-29T00:03:30.647Z,-0.49
2023-03-29T00:06:03.939Z,-0.45
2023-03-29T00:08:34.036Z,-0.30
2023-03-29T00:11:02.401Z,-0.26
2023-03-29T00:13:30.367Z,-0.23
2023-03-29T00:15:58.006Z,-0.17
2023-03-29T00:18:30.299Z,-0.16
2023-03-29T00:21:00.160Z,-0.18
2023-03-29T00:23:28.596Z,-0.20
2023-03-29T00:25:59.167Z,-0.19
2023-03-29T00:28:27.182Z,-0.22
2023-03-29T00:30:54.855Z,-0.26
2023-03-29T00:33:22.898Z,-0.34
2023-03-29T00:35:50.566Z,-0.35
2023-03-29T00:38:20.635Z,-0.36
2023-03-29T00:40:48.500Z,-0.35
2023-03-29T00:43:16.993Z,-0.34
2023-03-29T00:45:46.805Z,-0.34
2023-03-29T00:48:18.441Z,-0.37
2023-03-29T00:50:49.071Z,-0.32
2023-03-29T00:53:33.469Z,-0.37
2023-03-29T00:56:06.841Z,-0.36
2023-03-29T00:58:39.351Z,-0.45
2023-03-29T01:01:17.463Z,-0.47
2023-03-29T01:03:54.588Z,-0.53
2023-03-29T01:06:29.125Z,-0.53
2023-03-29T01:09:01.281Z,-0.59
2023-03-29T01:11:38.310Z,-0.65
2023-03-29T01:14:11.697Z,-0.73
2023-03-29T01:16:39.503Z,-0.82
2023-03-29T01:19:15.458Z,-0.90
2023-03-29T01:21:51.863Z,-0.90
2023-03-29T01:24:58.691Z,-0.91
2023-03-29T01:27:54.391Z,-0.90
2023-03-29T01:30:38.524Z,-0.88
2023-03-29T01:33:32.215Z,-0.90
2023-03-29T01:36:19.310Z,-0.98
2023-03-29T01:39:05.079Z,-1.06
2023-03-29T01:41:48.144Z,-1.14
2023-03-29T01:44:28.262Z,-1.20
2023-03-29T01:47:07.317Z,-1.25
2023-03-29T01:49:42.234Z,-1.26
2023-03-29T01:52:23.869Z,-1.27
2023-03-29T01:55:00.680Z,-1.25
2023-03-29T01:57:28.736Z,-1.22
2023-03-29T01:59:58.860Z,-1.20
2023-03-29T02:02:30.455Z,-1.23
2023-03-29T02:04:59.367Z,-1.22
2023-03-29T02:07:32.324Z,-1.23
2023-03-29T02:10:00.605Z,-1.26
2023-03-29T02:12:28.307Z,-1.28
2023-03-29T02:14:58.649Z,-1.32
2023-03-29T02:17:28.610Z,-1.34
2023-03-29T02:20:02.389Z,-1.40
2023-03-29T02:22:41.262Z,-1.45
2023-03-29T02:25:09.757Z,-1.47
2023-03-29T02:27:38.823Z,-1.54
2023-03-29T02:30:10.037Z,-1.70
2023-03-29T02:32:50.206Z,-1.70
2023-03-29T02:35:54.567Z,-1.79
2023-03-29T02:38:27.814Z,-1.90
2023-03-29T02:40:57.380Z,-1.97
2023-03-29T02:43:28.564Z,-1.98
2023-03-29T02:45:57.057Z,-2.09
2023-03-29T02:48:28.664Z,-2.11
2023-03-29T02:51:01.782Z,-2.18
2023-03-29T02:53:43.109Z,-2.24
2023-03-29T02:56:12.069Z,-2.32
2023-03-29T02:58:39.716Z,-2.36
2023-03-29T03:01:10.405Z,-2.44
2023-03-29T03:03:40.309Z,-2.44
2023-03-29T03:06:08.487Z,-2.46
2023-03-29T03:08:36.279Z,-2.51
2023-03-29T03:11:04.140Z,-2.49
2023-03-29T03:13:32.011Z,-2.54
2023-03-29T03:16:03.578Z,-2.57
2023-03-29T03:18:31.881Z,-2.53
2023-03-29T03:21:01.855Z,-2.58
2023-03-29T03:23:30.418Z,-2.57
2023-03-29T03:26:03.101Z,-2.58
2023-03-29T03:28:32.295Z,-2.60
2023-03-29T03:31:02.255Z,-2.64
2023-03-29T03:33:32.938Z,-2.67
2023-03-29T03:36:04.875Z,-2.72
2023-03-29T03:38:33.762Z,-2.75
2023-03-29T03:41:03.723Z,-2.76
2023-03-29T03:43:31.584Z,-2.77
2023-03-29T03:45:59.647Z,-2.75
2023-03-29T03:48:27.350Z,-2.75
2023-03-29T03:50:58.237Z,-2.76
2023-03-29T03:53:28.438Z,-2.78
2023-03-29T03:55:57.498Z,-2.83
2023-03-29T03:58:26.273Z,-2.82
2023-03-29T04:00:54.989Z,-2.76
2023-03-29T04:03:25.208Z,-2.81
2023-03-29T04:05:52.852Z,-2.74
2023-03-29T04:08:23.418Z,-2.68
2023-03-29T04:10:55.268Z,-2.63
2023-03-29T04:13:23.915Z,-2.61
2023-03-29T04:15:54.349Z,-2.59
2023-03-29T04:18:23.023Z,-2.52
2023-03-29T04:20:51.555Z,-2.46
2023-03-29T04:23:19.498Z,-2.42
2023-03-29T04:25:47.422Z,-2.35
2023-03-29T04:28:17.430Z,-2.35
2023-03-29T04:30:47.340Z,-2.30
2023-03-29T04:33:15.283Z,-2.32
2023-03-29T04:35:45.313Z,-2.35
2023-03-29T04:38:13.196Z,-2.37
2023-03-29T04:40:40.908Z,-2.38
2023-03-29T04:43:10.666Z,-2.41
2023-03-29T04:45:38.289Z,-2.37
2023-03-29T04:48:06.043Z,-2.39
2023-03-29T04:50:34.816Z,-2.39
2023-03-29T04:53:05.117Z,-2.31
2023-03-29T04:55:32.798Z,-2.17
2023-03-29T04:58:02.903Z,-2.03
2023-03-29T05:00:33.020Z,-1.82
2023-03-29T05:03:00.783Z,-1.73
2023-03-29T05:05:28.486Z,-1.57
2023-03-29T05:07:56.090Z,-1.47
2023-03-29T05:10:24.361Z,-1.28
2023-03-29T05:12:54.805Z,-1.17
2023-03-29T05:15:24.650Z,-1.03
2023-03-29T05:17:52.334Z,-0.90
2023-03-29T05:20:20.078Z,-0.79
2023-03-29T05:22:48.719Z,-0.67
2023-03-29T05:25:18.839Z,-0.62
2023-03-29T05:27:46.839Z,-0.54
2023-03-29T05:30:15.921Z,-0.39
2023-03-29T05:32:43.982Z,-0.34
2023-03-29T05:35:11.892Z,-0.21
2023-03-29T05:37:39.591Z,0.02
2023-03-29T05:40:10.419Z,0.24
2023-03-29T05:42:38.893Z,0.42
2023-03-29T05:45:12.028Z,0.58
2023-03-29T05:47:39.729Z,0.57
2023-03-29T05:50:09.702Z,0.56
2023-03-29T05:52:41.189Z,0.60
2023-03-29T05:55:12.254Z,0.56
2023-03-29T05:57:42.199Z,0.72
2023-03-29T06:00:20.124Z,0.78
2023-03-29T06:02:48.318Z,0.83
2023-03-29T06:05:16.145Z,0.99
2023-03-29T06:07:43.834Z,1.03
2023-03-29T06:10:12.985Z,1.14
2023-03-29T06:12:43.074Z,1.30
2023-03-29T06:15:13.336Z,1.29
2023-03-29T06:17:41.444Z,1.24
2023-03-29T06:20:11.879Z,1.27
2023-03-29T06:22:40.177Z,1.24
2023-03-29T06:25:10.985Z,1.27
2023-03-29T06:27:38.853Z,1.41
2023-03-29T06:30:12.212Z,1.59
2023-03-29T06:32:42.535Z,1.61
2023-03-29T06:35:12.964Z,1.62
2023-03-29T06:37:49.330Z,1.72
2023-03-29T06:40:19.222Z,1.71
2023-03-29T06:42:48.745Z,2.08
2023-03-29T06:45:16.929Z,2.14
2023-03-29T06:47:47.082Z,2.38
2023-03-29T06:50:17.382Z,2.47
2023-03-29T06:52:47.078Z,2.75
2023-03-29T06:55:15.919Z,2.77
2023-03-29T06:57:43.877Z,2.99
2023-03-29T07:00:20.057Z,3.13
2023-03-29T07:02:47.703Z,3.15
2023-03-29T07:05:16.210Z,3.23
2023-03-29T07:08:02.626Z,3.40
2023-03-29T07:10:33.572Z,3.41
2023-03-29T07:13:05.868Z,3.45
2023-03-29T07:15:37.188Z,3.40
2023-03-29T07:18:07.366Z,3.43
2023-03-29T07:20:39.080Z,3.39
2023-03-29T07:23:08.204Z,3.71
2023-03-29T07:25:36.402Z,3.96
2023-03-29T07:28:04.852Z,4.43
2023-03-29T07:30:37.209Z,4.99
2023-03-29T07:33:05.029Z,5.58
2023-03-29T07:35:32.941Z,6.14
2023-03-29T07:38:00.877Z,6.81
2023-03-29T07:40:31.310Z,7.27
2023-03-29T07:43:00.439Z,7.62
2023-03-29T07:45:29.830Z,8.55
2023-03-29T07:47:59.970Z,9.22
2023-03-29T07:50:28.699Z,8.59
2023-03-29T07:52:56.920Z,8.60
2023-03-29T07:55:24.705Z,8.31
2023-03-29T07:57:52.792Z,7.82
2023-03-29T08:00:21.005Z,7.18
2023-03-29T08:02:52.315Z,6.81
2023-03-29T08:05:37.974Z,7.21
2023-03-29T08:08:09.810Z,7.17
2023-03-29T08:10:40.522Z,7.58
2023-03-29T08:13:13.926Z,7.75
2023-03-29T08:15:46.219Z,7.60
2023-03-29T08:18:14.102Z,7.53
2023-03-29T08:20:42.615Z,7.24
2023-03-29T08:23:12.823Z,7.46
2023-03-29T08:25:40.674Z,7.92
2023-03-29T08:28:08.685Z,8.09
2023-03-29T08:30:36.375Z,7.89
2023-03-29T08:33:04.098Z,8.20
2023-03-29T08:35:32.371Z,9.13
2023-03-29T08:38:05.404Z,10.09
2023-03-29T08:40:38.694Z,11.10
2023-03-29T08:43:12.495Z,11.27
2023-03-29T08:45:49.734Z,11.71
2023-03-29T08:48:42.284Z,11.64
2023-03-29T08:51:23.429Z,12.66
2023-03-29T08:53:55.142Z,12.85
2023-03-29T08:56:27.615Z,12.46
2023-03-29T08:58:58.317Z,12.51
2023-03-29T09:01:28.960Z,12.66
2023-03-29T09:04:13.984Z,14.00
2023-03-29T09:06:43.163Z,13.61
2023-03-29T09:09:21.050Z,13.25
2023-03-29T09:12:07.339Z,14.28
2023-03-29T09:15:06.782Z,15.55
2023-03-29T09:17:53.262Z,16.51
2023-03-29T09:20:31.413Z,14.67
2023-03-29T09:23:28.447Z,14.87
2023-03-29T09:26:02.175Z,16.96
2023-03-29T09:28:42.771Z,16.07
2023-03-29T09:31:24.010Z,15.28
2023-03-29T09:34:20.932Z,16.04
2023-03-29T09:36:55.470Z,14.75
2023-03-29T09:39:24.032Z,14.88
2023-03-29T09:41:58.240Z,14.20
2023-03-29T09:44:32.103Z,14.82
2023-03-29T09:47:08.412Z,13.92
2023-03-29T09:49:41.512Z,14.76
2023-03-29T09:52:14.219Z,15.05
2023-03-29T09:54:42.128Z,16.24
2023-03-29T09:57:15.124Z,15.75
2023-03-29T09:59:43.067Z,15.86
2023-03-29T10:02:14.121Z,15.29
2023-03-29T10:04:43.263Z,15.94
2023-03-29T10:07:19.153Z,16.19
2023-03-29T10:09:47.871Z,16.03
2023-03-29T10:12:17.560Z,16.16
2023-03-29T10:14:53.872Z,15.92
2023-03-29T10:17:28.051Z,16.73
2023-03-29T10:20:04.223Z,16.11
2023-03-29T10:22:38.571Z,16.94
2023-03-29T10:25:14.879Z,17.14
2023-03-29T10:27:44.696Z,16.35
2023-03-29T10:30:19.925Z,15.88
2023-03-29T10:32:48.172Z,16.06
2023-03-29T10:35:16.395Z,17.11
2023-03-29T10:37:46.156Z,15.94
2023-03-29T10:40:35.156Z,15.13
2023-03-29T10:43:14.534Z,15.81
2023-03-29T10:45:42.597Z,16.90
2023-03-29T10:48:15.756Z,15.58
2023-03-29T10:50:44.095Z,15.31
2023-03-29T10:53:17.951Z,15.32
2023-03-29T10:55:59.534Z,15.60
2023-03-29T10:58:40.181Z,16.19
2023-03-29T11:01:19.216Z,16.77
2023-03-29T11:04:16.675Z,16.52
2023-03-29T11:06:59.757Z,17.56
2023-03-29T11:09:59.463Z,17.68
2023-03-29T11:13:02.835Z,17.49
2023-03-29T11:16:01.816Z,16.93
2023-03-29T11:18:48.292Z,16.22
2023-03-29T11:21:34.347Z,14.45
2023-03-29T11:24:27.385Z,15.34
2023-03-29T11:27:28.450Z,14.90
2023-03-29T11:30:02.344Z,15.15
2023-03-29T11:32:35.784Z,15.78
2023-03-29T11:35:36.380Z,16.07
2023-03-29T11:38:34.474Z,15.83
2023-03-29T11:41:10.912Z,15.69
2023-03-29T11:43:55.133Z,15.25
2023-03-29T11:47:04.990Z,16.28
2023-03-29T11:49:39.205Z,15.81
2023-03-29T11:52:12.701Z,16.59
2023-03-29T11:54:46.126Z,16.52
2023-03-29T11:57:40.212Z,16.17
2023-03-29T12:00:26.157Z,15.57
2023-03-29T12:02:58.060Z,14.75
2023-03-29T12:05:44.432Z,15.34
2023-03-29T12:08:19.975Z,15.18
2023-03-29T12:10:54.220Z,15.55
2023-03-29T12:13:35.995Z,14.78
2023-03-29T12:16:38.013Z,15.02
2023-03-29T12:19:16.445Z,15.23
2023-03-29T12:21:48.335Z,14.73
2023-03-29T12:24:18.205Z,15.26
2023-03-29T12:27:17.138Z,14.95
2023-03-29T12:30:17.238Z,14.98
2023-03-29T12:33:10.596Z,14.26
2023-03-29T12:36:06.034Z,13.21
2023-03-29T12:38:34.232Z,12.62
2023-03-29T12:41:06.172Z,13.01
2023-03-29T12:43:37.981Z,12.88
2023-03-29T12:46:11.447Z,13.48
2023-03-29T12:48:44.454Z,13.18
2023-03-29T12:51:16.263Z,13.30
2023-03-29T12:53:48.280Z,12.84
2023-03-29T12:56:19.016Z,12.69
2023-03-29T12:58:48.302Z,12.15
2023-03-29T13:01:34.291Z,12.00
2023-03-29T13:04:03.907Z,11.89
2023-03-29T13:06:53.641Z,11.66
2023-03-29T13:09:22.038Z,11.69
2023-03-29T13:11:58.539Z,11.41
2023-03-29T13:14:32.855Z,11.58
2023-03-29T13:17:24.536Z,12.10
2023-03-29T13:20:17.252Z,12.19
2023-03-29T13:22:44.811Z,12.38
2023-03-29T13:25:15.508Z,12.88
2023-03-29T13:27:57.474Z,12.81
2023-03-29T13:30:49.498Z,12.51
2023-03-29T13:33:38.227Z,11.77
2023-03-29T13:36:11.597Z,11.27
2023-03-29T13:38:50.946Z,10.87
2023-03-29T13:41:40.341Z,10.57
2023-03-29T13:44:30.223Z,10.64
2023-03-29T13:47:27.215Z,10.69
2023-03-29T13:49:59.209Z,10.77
2023-03-29T13:52:34.308Z,10.87
2023-03-29T13:55:08.665Z,10.80
2023-03-29T13:57:41.873Z,10.96
2023-03-29T14:00:21.670Z,10.65
2023-03-29T14:03:13.290Z,10.74
2023-03-29T14:05:45.262Z,10.79
2023-03-29T14:08:27.259Z,10.86
2023-03-29T14:10:55.441Z,10.91
2023-03-29T14:13:27.123Z,10.49
2023-03-29T14:16:00.119Z,10.41
2023-03-29T14:18:30.497Z,10.44
2023-03-29T14:20:58.207Z,10.47
2023-03-29T14:23:28.299Z,10.20
2023-03-29T14:25:57.260Z,10.17
2023-03-29T14:28:26.561Z,10.15
2023-03-29T14:30:54.818Z,10.13
2023-03-29T14:33:34.971Z,10.34
2023-03-29T14:36:04.996Z,10.10
2023-03-29T14:38:33.565Z,10.16
2023-03-29T14:41:03.118Z,10.29
2023-03-29T14:43:32.323Z,10.14
2023-03-29T14:46:04.306Z,9.95
2023-03-29T14:48:33.378Z,9.89
2023-03-29T14:51:01.813Z,9.79
2023-03-29T14:53:34.484Z,9.88
2023-03-29T14:56:06.787Z,10.17
2023-03-29T14:58:36.604Z,10.21
2023-03-29T15:01:27.958Z,10.05
2023-03-29T15:04:03.554Z,10.01
2023-03-29T15:06:32.212Z,9.92
2023-03-29T15:09:05.333Z,9.88
2023-03-29T15:11:39.778Z,9.98
2023-03-29T15:14:17.149Z,10.09
2023-03-29T15:16:47.497Z,9.92
2023-03-29T15:19:24.278Z,9.77
2023-03-29T15:21:55.054Z,9.71
2023-03-29T15:24:35.616Z,9.63
2023-03-29T15:27:18.160Z,9.56
2023-03-29T15:29:48.049Z,9.49
2023-03-29T15:32:24.145Z,9.51
2023-03-29T15:35:09.510Z,9.60
2023-03-29T15:37:37.873Z,9.64
2023-03-29T15:40:09.885Z,9.43
2023-03-29T15:42:39.758Z,9.54
2023-03-29T15:45:15.455Z,9.42
2023-03-29T15:47:46.618Z,9.45
2023-03-29T15:50:15.524Z,9.46
2023-03-29T15:52:45.655Z,9.54
2023-03-29T15:55:13.262Z,9.42
2023-03-29T15:57:43.778Z,9.46
2023-03-29T16:00:14.379Z,9.33
2023-03-29T16:02:42.562Z,9.19
2023-03-29T16:05:13.106Z,9.16
2023-03-29T16:07:40.809Z,9.10
2023-03-29T16:10:09.013Z,8.99
2023-03-29T16:12:38.515Z,8.96
2023-03-29T16:15:19.462Z,8.98
2023-03-29T16:17:47.608Z,8.94
2023-03-29T16:20:20.104Z,8.94
2023-03-29T16:22:48.940Z,8.92
2023-03-29T16:25:19.165Z,8.89
2023-03-29T16:27:47.090Z,8.86
2023-03-29T16:30:15.054Z,8.85
2023-03-29T16:32:43.130Z,8.81
2023-03-29T16:35:21.791Z,8.81
2023-03-29T16:37:49.514Z,8.74
2023-03-29T16:40:17.334Z,8.72
2023-03-29T16:42:45.258Z,8.67
2023-03-29T16:45:18.424Z,8.63
2023-03-29T16:47:47.588Z,8.62
2023-03-29T16:50:19.015Z,8.57
2023-03-29T16:52:48.494Z,8.54
2023-03-29T16:55:19.048Z,8.53
2023-03-29T16:57:48.548Z,8.50
2023-03-29T17:00:19.894Z,8.46
2023-03-29T17:02:50.990Z,8.44
2023-03-29T17:05:19.828Z,8.41
2023-03-29T17:07:47.518Z,8.38
2023-03-29T17:10:15.555Z,8.34
2023-03-29T17:12:43.226Z,8.31
2023-03-29T17:15:13.056Z,8.29
2023-03-29T17:17:41.134Z,8.26
2023-03-29T17:20:11.989Z,8.26
2023-03-29T17:22:40.756Z,8.23
2023-03-29T17:25:09.758Z,8.21
2023-03-29T17:27:38.497Z,8.18
2023-03-29T17:30:07.722Z,8.16
2023-03-29T17:32:37.591Z,8.12
2023-03-29T17:35:05.767Z,8.09
2023-03-29T17:37:33.383Z,8.07
2023-03-29T17:40:01.293Z,8.04
2023-03-29T17:42:30.357Z,8.03
2023-03-29T17:44:58.054Z,8.00
2023-03-29T17:47:25.836Z,7.98
2023-03-29T17:49:53.502Z,7.95
2023-03-29T17:52:21.138Z,7.94
2023-03-29T17:54:51.111Z,7.91
2023-03-29T17:57:18.820Z,7.89
2023-03-29T17:59:48.670Z,7.84
2023-03-29T18:02:25.770Z,7.83
2023-03-29T18:04:53.481Z,7.80
2023-03-29T18:07:21.076Z,7.79
2023-03-29T18:09:48.732Z,7.75
2023-03-29T18:12:16.704Z,7.79
2023-03-29T18:14:44.613Z,7.80
2023-03-29T18:17:12.252Z,7.75
2023-03-29T18:19:42.383Z,7.74
2023-03-29T18:22:10.048Z,7.71
2023-03-29T18:24:37.666Z,7.68
2023-03-29T18:27:05.567Z,7.69
2023-03-29T18:29:33.262Z,7.65
2023-03-29T18:32:03.127Z,7.62
2023-03-29T18:34:54.021Z,7.61
2023-03-29T18:37:28.832Z,7.58
2023-03-29T18:40:14.776Z,7.54
2023-03-29T18:45:39.541Z,7.51
2023-03-29T18:48:08.085Z,7.45
2023-03-29T18:50:37.485Z,7.41
2023-03-29T18:53:05.585Z,7.43
2023-03-29T18:55:35.698Z,7.41
2023-03-29T18:58:03.527Z,7.38
2023-03-29T19:00:32.153Z,7.31
2023-03-29T19:02:59.934Z,7.34
2023-03-29T19:05:28.804Z,7.33
2023-03-29T19:07:56.443Z,7.33
2023-03-29T19:10:24.728Z,7.35
2023-03-29T19:12:53.385Z,7.34
2023-03-29T19:15:21.062Z,7.31
2023-03-29T19:17:48.682Z,7.30
2023-03-29T19:20:16.635Z,7.27
2023-03-29T19:22:44.293Z,7.26
2023-03-29T19:25:12.144Z,7.23
2023-03-29T19:27:42.244Z,7.26
2023-03-29T19:30:11.726Z,7.25
2023-03-29T19:32:39.424Z,7.23
2023-03-29T19:35:09.692Z,7.23
2023-03-29T19:37:37.551Z,7.21
2023-03-29T19:40:07.132Z,7.21
2023-03-29T19:42:37.478Z,7.15
2023-03-29T19:45:10.361Z,7.17
2023-03-29T19:47:38.072Z,7.18
2023-03-29T19:50:07.036Z,7.14
2023-03-29T19:52:34.643Z,7.16
2023-03-29T19:55:02.342Z,7.15
2023-03-29T19:57:30.855Z,7.16
2023-03-29T19:59:58.608Z,7.09
2023-03-29T20:02:26.458Z,7.09
2023-03-29T20:04:55.122Z,7.11
2023-03-29T20:07:22.816Z,7.09
2023-03-29T20:09:50.466Z,7.07
2023-03-29T20:12:18.459Z,7.08
2023-03-29T20:14:46.249Z,7.09
2023-03-29T20:17:16.626Z,7.09
2023-03-29T20:19:44.771Z,7.06
2023-03-29T20:22:15.661Z,7.05
2023-03-29T20:24:47.317Z,7.02
2023-03-29T20:27:15.988Z,6.96
2023-03-29T20:29:43.644Z,6.95
2023-03-29T20:32:11.359Z,6.92
2023-03-29T20:34:39.054Z,6.90
2023-03-29T20:37:06.870Z,6.83
2023-03-29T20:39:34.689Z,6.79
2023-03-29T20:42:04.727Z,6.70
2023-03-29T20:44:35.475Z,6.73
2023-03-29T20:47:08.747Z,6.66
2023-03-29T20:49:38.172Z,6.71
2023-03-29T20:52:06.151Z,6.69
2023-03-29T20:54:34.325Z,6.74
2023-03-29T20:57:02.204Z,6.73
2023-03-29T20:59:30.059Z,6.76
2023-03-29T21:02:00.200Z,6.78
2023-03-29T21:04:29.740Z,6.80
2023-03-29T21:07:02.450Z,6.79
2023-03-29T21:09:31.306Z,6.78
2023-03-29T21:11:58.942Z,6.76
2023-03-29T21:14:30.232Z,6.76
2023-03-29T21:16:57.877Z,6.78
2023-03-29T21:19:25.529Z,6.80
2023-03-29T21:21:55.664Z,6.79
2023-03-29T21:24:23.660Z,6.76
2023-03-29T21:26:51.338Z,6.76
2023-03-29T21:29:18.939Z,6.75
2023-03-29T21:31:49.151Z,6.75
2023-03-29T21:34:16.872Z,6.71
2023-03-29T21:36:44.531Z,6.68
2023-03-29T21:39:12.188Z,6.58
2023-03-29T21:41:42.028Z,6.53
2023-03-29T21:44:10.013Z,6.49
2023-03-29T21:46:38.193Z,6.45
2023-03-29T21:49:06.312Z,6.38
2023-03-29T21:51:35.229Z,6.34
2023-03-29T21:54:05.421Z,6.34
2023-03-29T21:56:33.070Z,6.26
2023-03-29T21:59:00.775Z,6.22
2023-03-29T22:01:28.551Z,6.17
2023-03-29T22:03:59.363Z,6.10
2023-03-29T22:06:29.313Z,6.05
2023-03-29T22:08:57.040Z,5.97
2023-03-29T22:11:25.655Z,5.88
2023-03-29T22:13:56.740Z,5.79
2023-03-29T22:16:25.922Z,5.71
2023-03-29T22:18:54.353Z,5.66
2023-03-29T22:21:28.475Z,5.63
2023-03-29T22:23:57.634Z,5.55
2023-03-29T22:26:28.579Z,5.50
2023-03-29T22:28:57.266Z,5.44
2023-03-29T22:31:27.084Z,5.40
2023-03-29T22:33:55.032Z,5.30
2023-03-29T22:36:28.588Z,5.22
2023-03-29T22:38:56.741Z,5.18
2023-03-29T22:41:26.157Z,5.02
2023-03-29T22:43:57.938Z,5.05
2023-03-29T22:46:26.386Z,5.00
2023-03-29T22:48:54.308Z,4.94
2023-03-29T22:51:22.461Z,4.89
2023-03-29T22:53:50.186Z,4.86
2023-03-29T22:56:18.646Z,4.78
2023-03-29T22:58:46.510Z,4.70
2023-03-29T23:01:14.468Z,4.65
2023-03-29T23:03:42.419Z,4.64
2023-03-29T23:06:10.294Z,4.63
2023-03-29T23:08:38.117Z,4.58
2023-03-29T23:11:07.407Z,4.57
2023-03-29T23:13:35.213Z,4.56
2023-03-29T23:16:05.426Z,4.52
2023-03-29T23:18:37.693Z,4.50
2023-03-29T23:21:08.905Z,4.50
2023-03-29T23:23:36.908Z,4.47
2023-03-29T23:26:04.940Z,4.49
2023-03-29T23:28:34.766Z,4.57
2023-03-29T23:31:11.741Z,4.63
2023-03-29T23:33:41.742Z,4.70
2023-03-29T23:36:15.925Z,4.76
2023-03-29T23:38:46.161Z,4.83
2023-03-29T23:41:14.753Z,4.82
2023-03-29T23:43:47.103Z,4.87
2023-03-29T23:46:17.746Z,4.91
2023-03-29T23:48:47.138Z,4.98
2023-03-29T23:51:15.140Z,5.00
2023-03-29T23:53:42.743Z,5.01
2023-03-29T23:56:10.608Z,4.98
2023-03-29T23:58:39.206Z,5.10
